Time;durP1;ratioP1;P1;durP2;ratioP2;P2;SDS_P1;SDS_P2;PMS_P1;PMS_P2;Temp;Humidity;BMP_temperature;BMP_pressure;BME280_temperature;BME280_humidity;BME280_pressure;Samples;Min_cycle;Max_cycle;Signal;HPM_P1;HPM_P2
2022/04/08 00:00:36;;;;;;;0.20;0.10;;;;;;;7.10;86.06;96864.47;103546;1302;24409;-30
2022/04/08 00:03:02;;;;;;;0.70;0.10;;;;;;;6.89;86.22;96858.94;103544;1302;24254;-29
2022/04/08 00:05:28;;;;;;;1.70;0.40;;;;;;;6.68;85.04;96849.25;103500;1300;23590;-24
2022/04/08 00:07:53;;;;;;;3.10;0.30;;;;;;;6.22;88.19;96849.09;103561;1302;24240;-24
2022/04/08 00:10:19;;;;;;;0.30;0.20;;;;;;;5.96;90.04;96852.34;103529;1302;23836;-29
2022/04/08 00:12:45;;;;;;;1.70;0.40;;;;;;;5.80;91.58;96860.95;103547;1302;24218;-25
2022/04/08 00:15:11;;;;;;;0.00;0.00;;;;;;;5.80;92.20;96870.05;103493;1300;24219;-29
2022/04/08 00:17:36;;;;;;;0.90;0.40;;;;;;;5.67;92.77;96874.02;103531;1302;22620;-25
2022/04/08 00:20:03;;;;;;;1.20;0.30;;;;;;;5.71;93.49;96868.06;103552;1300;22593;-30
2022/04/08 00:22:29;;;;;;;2.50;0.30;;;;;;;5.85;92.87;96861.29;103504;1300;24218;-26
2022/04/08 00:24:55;;;;;;;0.40;0.30;;;;;;;5.80;92.98;96863.76;103482;1300;24247;-30
2022/04/08 00:27:21;;;;;;;1.90;0.20;;;;;;;5.66;94.07;96866.82;103539;1300;24297;-29
2022/04/08 00:29:46;;;;;;;1.50;0.40;;;;;;;5.76;94.04;96875.20;103495;1300;24259;-30
2022/04/08 00:32:13;;;;;;;0.30;0.10;;;;;;;5.81;93.81;96873.27;103513;1300;23926;-25
2022/04/08 00:34:39;;;;;;;1.70;0.20;;;;;;;6.04;92.20;96870.41;103537;1300;24300;-25
2022/04/08 00:37:04;;;;;;;1.10;0.30;;;;;;;5.75;93.03;96878.93;103514;1300;24218;-30
2022/04/08 00:39:30;;;;;;;1.10;0.20;;;;;;;5.68;93.26;96880.61;103513;1302;24298;-29
2022/04/08 00:41:59;;;;;;;4.40;0.40;;;;;;;5.84;93.40;96885.02;103453;1300;24302;-25
2022/04/08 00:44:25;;;;;;;2.00;0.20;;;;;;;5.97;92.29;96889.90;103551;1300;23647;-31
2022/04/08 00:46:50;;;;;;;0.80;0.20;;;;;;;5.85;92.00;96903.85;103429;1300;24662;-25
2022/04/08 00:49:16;;;;;;;0.50;0.20;;;;;;;5.99;91.24;96902.25;103556;1300;22748;-25
2022/04/08 00:51:42;;;;;;;0.50;0.30;;;;;;;6.10;90.64;96907.47;103585;1302;24409;-28
2022/04/08 00:54:08;;;;;;;1.10;0.50;;;;;;;6.25;89.43;96916.11;103528;1300;24372;-30
2022/04/08 00:56:34;;;;;;;3.50;0.60;;;;;;;6.54;88.23;96927.61;103453;1300;24238;-32
2022/04/08 00:59:00;;;;;;;0.30;0.20;;;;;;;6.53;87.72;96939.16;103488;1300;24196;-30
2022/04/08 01:01:26;;;;;;;1.30;0.40;;;;;;;6.41;88.39;96939.03;103524;1300;25025;-32
2022/04/08 01:03:52;;;;;;;1.00;0.70;;;;;;;6.69;85.23;96963.48;103527;1300;24226;-24
2022/04/08 01:06:19;;;;;;;2.40;1.00;;;;;;;6.64;85.27;96972.15;103568;1300;24240;-24
2022/04/08 01:08:46;;;;;;;0.90;0.40;;;;;;;6.60;84.00;96976.48;103531;1301;26130;-25
2022/04/08 01:11:12;;;;;;;1.30;1.00;;;;;;;6.36;83.70;96971.21;103642;1300;24372;-32
2022/04/08 01:13:38;;;;;;;1.30;0.40;;;;;;;6.11;83.63;96981.04;103536;1300;25416;-25
2022/04/08 01:16:06;;;;;;;7.30;0.20;;;;;;;5.59;85.62;96974.85;103500;1300;24430;-24
2022/04/08 01:18:31;;;;;;;2.30;0.50;;;;;;;5.68;85.03;96969.92;103512;1300;24241;-30
2022/04/08 01:20:57;;;;;;;0.40;0.20;;;;;;;5.49;85.48;96975.42;103397;1300;24212;-25
2022/04/08 01:23:23;;;;;;;1.30;0.40;;;;;;;5.26;86.34;96990.52;103530;1300;24291;-25
2022/04/08 01:25:48;;;;;;;1.90;0.20;;;;;;;5.27;86.36;96996.00;103578;1300;24520;-30
2022/04/08 01:28:14;;;;;;;7.60;0.50;;;;;;;4.99;87.97;97001.94;103500;1302;24205;-25
2022/04/08 01:30:40;;;;;;;1.80;0.50;;;;;;;4.80;89.07;96994.69;103572;1300;22620;-29
2022/04/08 01:33:06;;;;;;;3.50;0.50;;;;;;;4.81;88.87;96995.45;103540;1300;23164;-29
2022/04/08 01:35:32;;;;;;;1.70;0.20;;;;;;;4.68;90.26;96970.45;103563;1300;24249;-24
2022/04/08 01:37:57;;;;;;;0.50;0.10;;;;;;;4.78;89.85;96974.77;103505;1300;24216;-32
2022/04/08 01:40:23;;;;;;;10.20;0.50;;;;;;;4.72;89.76;96982.52;103540;1302;24209;-32
2022/04/08 01:42:49;;;;;;;4.90;0.20;;;;;;;4.38;92.42;96985.95;103523;1300;24237;-30
2022/04/08 01:45:15;;;;;;;1.10;0.10;;;;;;;4.40;93.14;96984.39;103524;1300;24304;-22
2022/04/08 01:47:41;;;;;;;0.10;0.10;;;;;;;4.38;93.54;96970.83;103556;1300;24195;-29
2022/04/08 01:50:07;;;;;;;2.40;0.20;;;;;;;4.41;94.03;96973.90;103623;1301;24269;-29
2022/04/08 01:52:34;;;;;;;1.00;0.30;;;;;;;4.32;94.85;96970.84;103563;1300;24249;-31
2022/04/08 01:55:00;;;;;;;0.90;0.30;;;;;;;4.53;94.16;96971.36;103534;1300;24433;-30
2022/04/08 01:57:29;;;;;;;1.60;0.30;;;;;;;4.49;94.00;96968.98;103360;1302;24215;-29
2022/04/08 01:59:55;;;;;;;1.30;0.10;;;;;;;4.34;94.03;96967.17;103589;1300;24301;-30
2022/04/08 02:02:20;;;;;;;2.20;0.20;;;;;;;4.48;93.18;96963.22;103545;1300;23812;-25
2022/04/08 02:04:46;;;;;;;1.80;0.20;;;;;;;4.45;92.36;96962.06;103605;1300;23743;-31
2022/04/08 02:07:12;;;;;;;0.80;0.20;;;;;;;4.83;90.40;96960.61;103603;1300;24309;-24
2022/04/08 02:09:39;;;;;;;1.20;0.30;;;;;;;4.66;89.73;96962.61;103517;1300;24249;-24
2022/04/08 02:12:04;;;;;;;1.50;0.40;;;;;;;4.87;88.97;96960.80;103520;1302;24385;-29
2022/04/08 02:14:30;;;;;;;9.80;0.40;;;;;;;5.24;86.04;96964.92;103575;1300;24291;-31
2022/04/08 02:16:56;;;;;;;0.40;0.10;;;;;;;5.46;84.12;96963.05;103544;1300;24222;-30
2022/04/08 02:19:21;;;;;;;4.10;0.10;;;;;;;5.24;84.35;96961.65;103440;1300;22496;-29
2022/04/08 02:21:48;;;;;;;0.80;0.30;;;;;;;4.95;85.70;96964.95;103521;1300;23595;-31
2022/04/08 02:24:13;;;;;;;0.90;0.10;;;;;;;4.85;86.48;96964.52;103615;1300;23762;-24
2022/04/08 02:26:40;;;;;;;0.40;0.20;;;;;;;4.71;86.94;96966.90;103520;1300;24242;-29
2022/04/08 02:29:05;;;;;;;1.90;0.40;;;;;;;4.56;87.34;96967.52;103568;1300;22813;-29
2022/04/08 02:31:31;;;;;;;1.00;0.30;;;;;;;4.62;86.99;96970.09;103491;1302;24215;-24
2022/04/08 02:33:57;;;;;;;2.80;0.30;;;;;;;4.44;87.50;96968.28;103483;1302;22513;-29
2022/04/08 02:36:23;;;;;;;0.90;0.40;;;;;;;4.43;87.64;96972.52;103518;1299;24214;-26
2022/04/08 02:38:48;;;;;;;1.20;0.20;;;;;;;4.32;87.92;96976.10;103499;1300;24264;-24
2022/04/08 02:41:14;;;;;;;1.60;0.10;;;;;;;4.40;88.24;96979.68;103574;1300;24291;-30
2022/04/08 02:43:40;;;;;;;1.60;0.50;;;;;;;4.35;87.98;96982.09;103597;1300;24354;-29
2022/04/08 02:46:06;;;;;;;1.50;0.30;;;;;;;4.47;88.29;96976.52;103478;1300;23848;-24
2022/04/08 02:48:31;;;;;;;0.90;0.20;;;;;;;4.37;88.14;96971.90;103568;1300;24218;-28
2022/04/08 02:50:57;;;;;;;13.00;0.30;;;;;;;4.49;87.96;96980.80;103550;1300;24301;-26
2022/04/08 02:53:23;;;;;;;2.20;0.50;;;;;;;4.45;88.23;96979.10;103547;1300;22499;-30
2022/04/08 02:55:48;;;;;;;3.50;0.80;;;;;;;4.60;87.73;96986.14;103582;1300;24416;-31
2022/04/08 02:58:15;;;;;;;1.90;0.20;;;;;;;4.78;87.03;96983.81;103536;1300;24316;-25
2022/04/08 03:00:40;;;;;;;0.40;0.10;;;;;;;5.27;84.53;96979.95;103604;1300;22776;-29
2022/04/08 03:03:06;;;;;;;1.60;0.20;;;;;;;5.30;83.86;96986.76;103552;1300;24024;-29
2022/04/08 03:05:32;;;;;;;1.80;0.20;;;;;;;5.37;83.07;96984.34;103566;1300;24222;-30
2022/04/08 03:07:57;;;;;;;0.80;0.20;;;;;;;5.16;83.79;97000.46;103620;1300;24238;-25
2022/04/08 03:10:23;;;;;;;2.40;0.30;;;;;;;5.28;84.02;96992.91;103545;1300;22497;-24
2022/04/08 03:12:49;;;;;;;0.50;0.30;;;;;;;5.32;83.50;97001.18;103558;1300;22500;-24
2022/04/08 03:15:15;;;;;;;0.60;0.10;;;;;;;5.37;83.17;97002.70;103524;1302;23601;-30
2022/04/08 03:17:40;;;;;;;0.10;0.10;;;;;;;5.36;83.61;96998.64;103635;1300;22610;-24
2022/04/08 03:20:06;;;;;;;0.90;0.30;;;;;;;5.49;82.70;96997.27;103525;1300;23636;-29
2022/04/08 03:22:32;;;;;;;5.00;0.60;;;;;;;5.52;82.20;96996.38;103482;1302;24333;-29
2022/04/08 03:24:58;;;;;;;1.00;0.40;;;;;;;5.52;81.52;96994.56;103459;1300;24253;-24
2022/04/08 03:27:24;;;;;;;2.90;0.30;;;;;;;5.23;82.27;96997.90;103498;1302;24291;-29
2022/04/08 03:29:50;;;;;;;2.00;0.20;;;;;;;5.56;80.98;96995.38;103467;1300;24346;-29
2022/04/08 03:32:16;;;;;;;2.10;0.40;;;;;;;5.66;79.07;96990.42;103526;1300;22927;-25
2022/04/08 03:34:42;;;;;;;0.90;0.20;;;;;;;5.39;79.18;96995.76;103543;1300;24244;-28
2022/04/08 03:37:07;;;;;;;3.00;0.40;;;;;;;5.69;77.69;97006.44;103528;1300;24253;-30
2022/04/08 03:39:33;;;;;;;0.20;0.10;;;;;;;5.88;76.08;97000.80;103580;1300;24301;-29
2022/04/08 03:42:00;;;;;;;3.70;1.00;;;;;;;6.10;75.03;96991.90;103615;1300;22511;-29
2022/04/08 03:44:25;;;;;;;1.10;0.20;;;;;;;6.05;74.44;97008.53;103541;1300;24226;-28
2022/04/08 03:46:52;;;;;;;1.90;0.90;;;;;;;5.54;76.01;97017.47;103552;1300;24342;-30
2022/04/08 03:49:18;;;;;;;1.50;0.40;;;;;;;5.54;75.61;97022.36;103396;1300;24200;-25
2022/04/08 03:51:44;;;;;;;1.60;0.40;;;;;;;5.74;74.48;97023.71;103571;1300;24214;-26
2022/04/08 03:54:10;;;;;;;3.10;0.20;;;;;;;5.93;73.92;97027.46;103587;1300;24191;-24
2022/04/08 03:56:37;;;;;;;2.40;0.40;;;;;;;5.87;73.20;97028.73;103602;1300;22629;-25
2022/04/08 03:59:04;;;;;;;7.10;0.40;;;;;;;5.98;72.59;97034.98;103520;1300;24295;-25
2022/04/08 04:01:31;;;;;;;1.20;0.10;;;;;;;5.79;73.46;97035.02;103595;1300;24221;-31
2022/04/08 04:03:56;;;;;;;2.50;0.40;;;;;;;6.05;72.35;97044.25;103577;1300;24212;-28
2022/04/08 04:06:22;;;;;;;1.30;0.40;;;;;;;6.17;71.16;97040.85;103539;1300;23928;-27
2022/04/08 04:08:48;;;;;;;0.50;0.20;;;;;;;6.16;70.55;97047.73;103572;1299;24270;-26
2022/04/08 04:11:16;;;;;;;1.10;0.40;;;;;;;6.13;70.12;97041.83;103579;1300;24215;-28
2022/04/08 04:13:42;;;;;;;6.20;0.20;;;;;;;6.18;69.20;97053.52;103171;1300;360310;-24
2022/04/08 04:16:08;;;;;;;1.20;0.40;;;;;;;6.11;69.39;97052.62;103560;1300;22497;-24
2022/04/08 04:18:34;;;;;;;2.70;0.40;;;;;;;5.98;69.37;97059.25;103614;1300;24351;-29
2022/04/08 04:21:00;;;;;;;0.70;0.20;;;;;;;6.18;68.94;97061.24;103559;1300;25005;-27
2022/04/08 04:23:25;;;;;;;6.10;0.60;;;;;;;5.93;69.72;97074.73;103552;1300;24247;-30
2022/04/08 04:25:51;;;;;;;0.90;0.20;;;;;;;5.90;70.04;97073.07;103566;1300;24352;-30
2022/04/08 04:28:17;;;;;;;0.40;0.10;;;;;;;5.89;69.30;97077.91;103494;1300;22640;-28
2022/04/08 04:30:42;;;;;;;1.00;0.20;;;;;;;5.95;69.41;97083.25;103379;1300;24249;-29
2022/04/08 04:33:08;;;;;;;5.50;0.40;;;;;;;5.96;69.20;97086.55;103540;1300;24343;-24
2022/04/08 04:35:35;;;;;;;1.10;0.30;;;;;;;6.08;69.07;97092.75;103588;1300;24312;-25
2022/04/08 04:38:01;;;;;;;1.40;0.30;;;;;;;6.17;68.39;97099.81;103575;1300;22500;-24
2022/04/08 04:40:26;;;;;;;2.00;0.10;;;;;;;6.48;66.86;97104.46;103538;1300;24296;-28
2022/04/08 04:42:52;;;;;;;1.30;0.20;;;;;;;6.51;66.62;97109.88;103490;1300;22498;-26
2022/04/08 04:45:18;;;;;;;5.60;0.40;;;;;;;6.44;66.41;97120.95;103540;1300;24435;-26
2022/04/08 04:47:44;;;;;;;3.80;0.40;;;;;;;6.40;66.71;97119.08;103561;1300;22514;-24
2022/04/08 04:50:10;;;;;;;0.80;0.30;;;;;;;6.45;66.23;97131.27;103430;1300;24360;-28
2022/04/08 04:52:36;;;;;;;0.70;0.30;;;;;;;6.44;65.56;97126.36;103603;1300;23627;-27
2022/04/08 04:55:03;;;;;;;2.40;0.40;;;;;;;6.39;65.65;97130.61;103540;1300;24316;-25
2022/04/08 04:57:29;;;;;;;1.80;0.20;;;;;;;6.38;66.17;97134.11;103555;1300;24208;-24
2022/04/08 04:59:56;;;;;;;0.50;0.30;;;;;;;6.55;65.46;97140.23;103567;1300;24249;-29
2022/04/08 05:02:22;;;;;;;0.90;0.20;;;;;;;6.46;66.24;97139.41;103472;1300;24306;-26
2022/04/08 05:04:48;;;;;;;5.20;0.30;;;;;;;6.76;64.55;97128.06;103387;1300;24280;-29
2022/04/08 05:07:13;;;;;;;1.50;0.60;;;;;;;6.76;64.46;97149.06;103577;1301;25000;-30
2022/04/08 05:09:40;;;;;;;0.80;0.30;;;;;;;6.57;64.78;97151.82;103422;1300;24233;-25
2022/04/08 05:12:07;;;;;;;2.00;0.30;;;;;;;6.59;64.75;97151.63;103334;1300;24308;-29
2022/04/08 05:14:33;;;;;;;7.70;0.60;;;;;;;6.53;64.84;97149.30;103534;1300;24253;-24
2022/04/08 05:16:59;;;;;;;1.70;0.30;;;;;;;6.74;63.97;97164.67;103523;1300;24257;-24
2022/04/08 05:19:25;;;;;;;1.60;0.20;;;;;;;6.64;63.98;97166.38;103451;1302;23597;-31
2022/04/08 05:21:52;;;;;;;2.20;0.60;;;;;;;6.61;64.63;97172.98;103525;1300;24291;-27
2022/04/08 05:24:19;;;;;;;1.90;0.60;;;;;;;6.59;64.09;97183.22;103612;1300;24245;-29
2022/04/08 05:26:45;;;;;;;1.00;0.60;;;;;;;6.76;64.05;97183.61;103570;1300;24218;-25
2022/04/08 05:29:11;;;;;;;2.10;0.30;;;;;;;6.70;63.49;97196.02;103562;1300;24215;-26
2022/04/08 05:31:36;;;;;;;3.40;0.30;;;;;;;6.76;63.78;97186.13;103498;1300;24218;-29
2022/04/08 05:34:02;;;;;;;2.70;0.40;;;;;;;6.74;63.94;97198.25;103573;1300;22623;-28
2022/04/08 05:36:28;;;;;;;0.60;0.30;;;;;;;6.80;63.78;97203.46;103346;1302;24310;-27
2022/04/08 05:38:54;;;;;;;1.50;0.30;;;;;;;6.66;64.14;97206.55;103582;1300;24290;-25
2022/04/08 05:41:19;;;;;;;0.40;0.20;;;;;;;6.89;63.24;97213.80;103528;1300;24215;-31
2022/04/08 05:43:45;;;;;;;4.90;0.60;;;;;;;6.92;62.96;97215.79;103498;1300;23637;-28
2022/04/08 05:46:12;;;;;;;1.60;0.40;;;;;;;6.97;62.01;97219.65;103607;1300;24385;-29
2022/04/08 05:48:37;;;;;;;1.60;0.30;;;;;;;6.87;62.44;97232.03;103682;1300;24213;-25
2022/04/08 05:51:03;;;;;;;4.80;0.10;;;;;;;6.72;63.60;97234.73;103583;1300;22952;-25
2022/04/08 05:53:29;;;;;;;6.10;0.40;;;;;;;6.81;63.35;97239.36;103515;1300;24309;-29
2022/04/08 05:55:56;;;;;;;2.50;0.40;;;;;;;6.92;62.36;97241.96;103543;1300;24308;-29
2022/04/08 05:58:21;;;;;;;0.00;0.00;;;;;;;7.07;62.28;97242.59;103562;1300;22492;-25
2022/04/08 06:00:47;;;;;;;2.00;0.20;;;;;;;7.05;61.71;97258.67;103391;1302;23793;-28
2022/04/08 06:03:13;;;;;;;2.60;0.30;;;;;;;7.26;60.91;97259.44;103541;1300;24228;-29
2022/04/08 06:05:39;;;;;;;0.70;0.30;;;;;;;7.23;60.95;97267.85;103446;1300;22956;-29
2022/04/08 06:08:05;;;;;;;2.70;0.30;;;;;;;7.21;61.49;97267.56;103595;1300;24358;-25
2022/04/08 06:10:31;;;;;;;0.20;0.00;;;;;;;7.55;60.08;97262.41;103482;1300;24336;-29
2022/04/08 06:12:57;;;;;;;1.50;0.70;;;;;;;7.20;60.60;97258.42;103485;1300;24225;-27
2022/04/08 06:15:23;;;;;;;2.10;0.40;;;;;;;7.38;60.38;97278.27;103563;1300;23549;-29
2022/04/08 06:17:49;;;;;;;8.30;0.60;;;;;;;7.62;59.56;97282.77;103582;1300;24139;-29
2022/04/08 06:20:16;;;;;;;1.90;1.00;;;;;;;7.46;59.83;97289.20;103519;1300;24254;-29
2022/04/08 06:22:42;;;;;;;6.20;1.30;;;;;;;7.70;59.04;97296.66;103600;1300;24249;-24
2022/04/08 06:25:09;;;;;;;0.60;0.30;;;;;;;7.41;60.27;97305.65;103440;1300;22729;-28
2022/04/08 06:27:35;;;;;;;1.40;0.30;;;;;;;7.58;59.70;97309.55;103519;1300;24252;-24
2022/04/08 06:30:03;;;;;;;1.40;0.20;;;;;;;7.62;60.32;97315.36;103459;1300;23511;-29
2022/04/08 06:32:29;;;;;;;3.30;0.30;;;;;;;8.14;58.75;97307.95;103622;1300;25026;-29
2022/04/08 06:34:55;;;;;;;0.70;0.30;;;;;;;8.02;58.52;97313.04;103509;1300;24023;-30
2022/04/08 06:37:26;;;;;;;2.70;0.20;;;;;;;8.25;58.33;97314.30;103588;1300;24376;-29
2022/04/08 06:39:52;;;;;;;1.30;0.40;;;;;;;8.33;58.95;97315.84;103566;1300;24317;-25
2022/04/08 06:42:18;;;;;;;4.70;0.20;;;;;;;8.38;58.57;97315.90;103545;1300;24304;-28
2022/04/08 06:44:43;;;;;;;1.00;0.00;;;;;;;8.71;57.21;97314.91;103494;1300;24308;-29
2022/04/08 06:47:09;;;;;;;0.80;0.20;;;;;;;8.47;57.77;97314.95;103578;1300;22753;-29
2022/04/08 06:49:35;;;;;;;0.70;0.10;;;;;;;8.49;57.54;97322.25;103551;1300;24248;-25
2022/04/08 06:52:01;;;;;;;2.30;0.30;;;;;;;8.59;56.92;97319.56;103367;1302;24216;-29
2022/04/08 06:54:28;;;;;;;0.30;0.10;;;;;;;8.69;56.90;97324.92;103442;1300;24233;-25
2022/04/08 06:56:54;;;;;;;1.50;0.40;;;;;;;8.57;57.32;97320.45;103451;1302;24251;-26
2022/04/08 06:59:20;;;;;;;0.50;0.20;;;;;;;8.66;56.34;97316.41;103579;1300;24253;-29
2022/04/08 07:01:46;;;;;;;2.70;0.30;;;;;;;8.53;56.73;97331.27;103493;1302;23750;-28
2022/04/08 07:04:12;;;;;;;2.20;0.80;;;;;;;8.28;57.90;97335.84;103624;1300;24249;-24
2022/04/08 07:06:37;;;;;;;1.10;0.40;;;;;;;8.46;57.57;97338.06;103577;1300;24459;-31
2022/04/08 07:09:03;;;;;;;1.80;0.40;;;;;;;8.31;57.57;97343.45;103543;1300;24306;-28
2022/04/08 07:11:29;;;;;;;0.60;0.10;;;;;;;8.32;57.65;97358.18;103411;1302;24192;-25
2022/04/08 07:13:55;;;;;;;4.30;0.50;;;;;;;8.06;58.13;97360.17;103532;1300;24304;-25
2022/04/08 07:16:20;;;;;;;1.90;0.70;;;;;;;8.36;57.49;97362.50;103566;1300;22514;-27
2022/04/08 07:18:46;;;;;;;8.80;2.40;;;;;;;8.14;58.15;97369.35;103552;1300;23600;-26
2022/04/08 07:21:12;;;;;;;2.80;0.60;;;;;;;8.17;58.12;97373.77;103532;1300;24358;-25
2022/04/08 07:23:37;;;;;;;8.20;2.70;;;;;;;8.35;58.01;97382.37;103537;1302;24288;-25
2022/04/08 07:26:04;;;;;;;2.20;0.60;;;;;;;8.63;56.90;97378.80;103652;1300;24226;-29
2022/04/08 07:28:29;;;;;;;2.30;0.80;;;;;;;8.28;58.22;97389.71;103561;1300;23738;-31
2022/04/08 07:30:55;;;;;;;5.10;0.30;;;;;;;8.43;57.85;97391.29;103650;1300;24237;-25
2022/04/08 07:33:21;;;;;;;5.50;1.00;;;;;;;8.48;58.20;97392.39;103516;1300;22631;-29
2022/04/08 07:35:46;;;;;;;7.50;1.10;;;;;;;8.72;57.57;97394.59;103561;1300;25037;-25
2022/04/08 07:38:12;;;;;;;3.40;1.20;;;;;;;8.89;57.65;97397.38;103565;1300;24317;-29
2022/04/08 07:40:38;;;;;;;4.50;1.10;;;;;;;8.98;57.67;97401.84;103557;1300;24224;-29
2022/04/08 07:43:04;;;;;;;3.30;1.10;;;;;;;8.97;58.54;97408.02;103555;1300;22818;-25
2022/04/08 07:45:30;;;;;;;5.70;1.60;;;;;;;9.20;56.50;97401.45;103597;1300;24359;-25
2022/04/08 07:47:58;;;;;;;0.90;0.40;;;;;;;9.15;56.84;97410.73;103544;1300;24229;-25
2022/04/08 07:50:25;;;;;;;3.10;0.40;;;;;;;9.26;56.67;97413.20;103514;1300;24308;-29
2022/04/08 07:52:50;;;;;;;1.30;0.70;;;;;;;9.12;56.73;97415.58;103559;1300;24282;-31
2022/04/08 07:55:20;;;;;;;1.00;0.30;;;;;;;9.18;56.02;97411.05;103551;1300;24260;-30
2022/04/08 07:57:46;;;;;;;5.60;0.80;;;;;;;8.99;56.61;97428.95;103559;1300;24295;-27
2022/04/08 08:00:14;;;;;;;9.10;0.50;;;;;;;9.22;55.33;97425.27;103588;1301;24390;-24
2022/04/08 08:02:42;;;;;;;12.40;1.20;;;;;;;8.95;55.88;97436.41;103627;1300;24215;-25
2022/04/08 08:05:09;;;;;;;1.40;0.30;;;;;;;8.87;56.71;97441.82;103583;1300;22542;-29
2022/04/08 08:07:41;;;;;;;1.20;0.30;;;;;;;8.79;56.81;97443.28;103545;1300;24439;-25
2022/04/08 08:10:07;;;;;;;3.50;0.90;;;;;;;8.65;56.56;97450.23;103590;1300;22628;-25
2022/04/08 08:12:33;;;;;;;1.40;0.60;;;;;;;8.56;56.07;97453.84;103572;1300;24272;-29
2022/04/08 08:14:59;;;;;;;17.00;0.90;;;;;;;8.79;56.59;97459.34;103386;1302;24214;-24
2022/04/08 08:17:25;;;;;;;2.40;0.60;;;;;;;8.97;56.16;97459.05;103562;1300;24220;-25
2022/04/08 08:19:51;;;;;;;5.10;1.00;;;;;;;9.00;55.21;97463.36;103366;1300;23610;-28
2022/04/08 08:22:17;;;;;;;1.80;0.60;;;;;;;8.63;56.81;97470.02;103549;1300;24211;-24
2022/04/08 08:24:43;;;;;;;3.40;1.10;;;;;;;8.84;56.54;97467.45;103555;1300;24281;-27
2022/04/08 08:27:09;;;;;;;3.70;0.20;;;;;;;9.09;55.37;97477.90;103546;1300;24366;-24
2022/04/08 08:29:35;;;;;;;2.60;1.10;;;;;;;8.81;56.36;97481.67;103529;1300;22662;-30
2022/04/08 08:32:01;;;;;;;19.70;3.80;;;;;;;9.22;56.28;97493.34;103504;1300;24250;-29
2022/04/08 08:34:27;;;;;;;1.30;0.40;;;;;;;8.75;57.47;97488.35;103522;1300;24214;-29
2022/04/08 08:36:57;;;;;;;1.80;0.40;;;;;;;9.38;54.93;97495.58;103532;1300;24759;-29
2022/04/08 08:39:23;;;;;;;2.90;0.60;;;;;;;8.87;57.29;97503.48;103564;1300;22504;-28
2022/04/08 08:41:48;;;;;;;3.10;1.00;;;;;;;9.19;55.86;97499.95;103515;1300;24192;-25
2022/04/08 08:44:14;;;;;;;1.90;0.50;;;;;;;9.24;55.24;97498.61;103526;1300;24353;-28
2022/04/08 08:46:40;;;;;;;4.20;1.50;;;;;;;9.47;54.55;97503.20;103534;1300;24295;-24
2022/04/08 08:49:05;;;;;;;1.60;0.50;;;;;;;9.15;56.20;97506.02;103499;1300;24213;-24
2022/04/08 08:51:35;;;;;;;7.70;0.90;;;;;;;9.33;54.99;97504.79;103557;1300;24311;-24
2022/04/08 08:54:00;;;;;;;3.90;1.30;;;;;;;9.79;53.70;97507.03;103633;1300;22508;-30
2022/04/08 08:56:26;;;;;;;1.80;0.50;;;;;;;9.68;54.06;97504.28;103535;1300;24302;-29
2022/04/08 08:58:52;;;;;;;1.10;0.30;;;;;;;9.53;55.43;97514.17;103595;1300;24260;-25
2022/04/08 09:01:17;;;;;;;1.00;0.40;;;;;;;9.57;55.67;97515.91;103365;1300;24249;-29
2022/04/08 09:03:45;;;;;;;0.70;0.40;;;;;;;9.51;54.74;97513.85;103516;1300;23787;-28
2022/04/08 09:06:11;;;;;;;2.10;0.90;;;;;;;9.90;52.55;97514.39;103576;1300;24289;-28
2022/04/08 09:08:38;;;;;;;1.20;0.30;;;;;;;9.87;53.70;97509.73;103577;1300;24237;-31
2022/04/08 09:11:04;;;;;;;1.00;0.40;;;;;;;9.44;54.88;97519.34;103524;1302;24356;-31
2022/04/08 09:13:30;;;;;;;4.50;1.10;;;;;;;9.70;53.72;97520.54;103507;1300;22502;-26
2022/04/08 09:15:59;;;;;;;2.80;1.30;;;;;;;9.61;53.91;97528.52;103591;1300;24201;-26
2022/04/08 09:18:30;;;;;;;0.60;0.30;;;;;;;8.94;56.42;97525.61;103511;1300;24349;-30
2022/04/08 09:20:56;;;;;;;2.30;0.70;;;;;;;9.20;55.88;97537.45;103334;1302;24315;-28
2022/04/08 09:23:21;;;;;;;3.20;0.60;;;;;;;9.41;54.81;97537.86;103582;1300;24337;-25
2022/04/08 09:25:48;;;;;;;1.10;0.40;;;;;;;9.03;56.74;97549.27;103537;1300;24272;-25
2022/04/08 09:28:16;;;;;;;4.50;1.40;;;;;;;9.09;56.17;97542.73;103522;1300;22740;-25
2022/04/08 09:30:47;;;;;;;0.70;0.40;;;;;;;9.52;54.67;97539.77;103565;1300;24191;-25
2022/04/08 09:33:16;;;;;;;2.10;1.00;;;;;;;9.95;52.43;97532.48;103578;1300;22655;-30
2022/04/08 09:35:42;;;;;;;1.80;0.60;;;;;;;9.58;54.19;97533.46;103624;1300;24177;-25
2022/04/08 09:38:08;;;;;;;1.10;0.40;;;;;;;9.77;52.71;97528.86;103604;1300;24526;-25
2022/04/08 09:40:36;;;;;;;3.50;0.50;;;;;;;9.50;55.11;97538.16;103554;1300;24295;-25
2022/04/08 09:43:02;;;;;;;2.40;0.60;;;;;;;9.83;54.55;97543.57;103606;1300;24276;-29
2022/04/08 09:45:30;;;;;;;0.40;0.20;;;;;;;9.82;55.13;97544.25;103425;1300;24241;-25
2022/04/08 09:47:58;;;;;;;1.00;0.50;;;;;;;9.46;56.12;97552.49;103571;1300;23104;-29
2022/04/08 09:50:24;;;;;;;0.70;0.30;;;;;;;9.74;54.49;97545.64;103611;1300;24259;-25
2022/04/08 09:52:50;;;;;;;0.60;0.30;;;;;;;9.68;55.50;97550.11;103613;1300;24199;-25
2022/04/08 09:55:16;;;;;;;2.60;0.50;;;;;;;9.36;55.09;97549.39;103580;1300;24291;-28
2022/04/08 09:57:42;;;;;;;2.30;1.00;;;;;;;9.52;54.28;97547.96;103518;1300;22498;-25
2022/04/08 10:00:08;;;;;;;1.60;0.70;;;;;;;9.09;56.62;97557.07;103575;1300;24213;-29
2022/04/08 10:02:38;;;;;;;1.10;0.50;;;;;;;8.88;57.68;97565.46;103550;1300;24364;-26
2022/04/08 10:05:05;;;;;;;2.60;0.50;;;;;;;8.80;59.29;97576.68;103611;1300;24393;-29
2022/04/08 10:07:31;;;;;;;6.80;1.90;;;;;;;8.70;59.20;97570.25;103569;1300;24336;-27
2022/04/08 10:10:04;;;;;;;1.30;0.30;;;;;;;8.91;58.68;97573.95;103582;1300;24225;-25
2022/04/08 10:12:35;;;;;;;;;;;;;;;9.05;58.14;97576.38;103562;1300;24263;-29
2022/04/08 10:15:07;;;;;;;1.40;0.60;;;;;;;8.90;59.58;97581.93;103546;1300;24266;-26
2022/04/08 10:17:33;;;;;;;1.50;0.70;;;;;;;8.94;57.90;97571.60;103436;1302;24370;-25
2022/04/08 10:20:06;;;;;;;4.70;3.00;;;;;;;9.31;56.14;97565.40;103323;1301;24217;-29
2022/04/08 10:22:40;;;;;;;6.90;2.20;;;;;;;9.23;55.71;97571.66;103531;1300;25463;-31
2022/04/08 10:25:13;;;;;;;1.00;0.30;;;;;;;9.89;54.87;97575.37;103589;1300;22496;-24
2022/04/08 10:27:39;;;;;;;1.00;0.70;;;;;;;9.89;55.29;97577.64;103530;1300;24218;-29
2022/04/08 10:30:11;;;;;;;0.20;0.10;;;;;;;10.30;53.63;97574.49;103530;1300;24407;-24
2022/04/08 10:32:38;;;;;;;0.60;0.40;;;;;;;10.34;52.66;97575.48;103551;1300;24213;-25
2022/04/08 10:35:10;;;;;;;1.40;0.60;;;;;;;9.19;61.56;97584.93;103528;1300;23497;-31
2022/04/08 10:37:36;;;;;;;1.00;0.50;;;;;;;8.81;65.57;97591.31;103566;1300;24156;-29
2022/04/08 10:40:04;;;;;;;2.20;1.00;;;;;;;8.99;65.79;97592.29;103519;1300;24221;-29
2022/04/08 10:42:34;;;;;;;2.20;0.80;;;;;;;8.81;66.39;97602.77;103601;1300;24245;-25
2022/04/08 10:45:12;;;;;;;3.30;0.50;;;;;;;8.89;67.46;97592.64;103517;1300;24319;-29
2022/04/08 10:47:46;;;;;;;0.90;0.40;;;;;;;9.43;61.74;97599.94;103581;1300;24314;-29
2022/04/08 10:50:12;;;;;;;2.70;1.00;;;;;;;9.78;59.70;97579.92;103622;1300;24222;-30
2022/04/08 10:52:39;;;;;;;0.40;0.30;;;;;;;10.17;59.54;97580.30;103517;1302;24971;-28
2022/04/08 10:55:08;;;;;;;0.50;0.30;;;;;;;10.96;56.28;97566.86;103618;1300;24249;-25
2022/04/08 10:57:38;;;;;;;0.60;0.10;;;;;;;10.99;56.74;97571.65;103636;1300;24900;-29
2022/04/08 11:00:08;;;;;;;1.50;0.40;;;;;;;11.45;56.72;97574.70;103608;1300;22499;-25
2022/04/08 11:02:35;;;;;;;5.70;2.10;;;;;;;12.08;53.96;97574.31;103480;1300;23855;-25
2022/04/08 11:05:03;;;;;;;2.70;1.00;;;;;;;12.78;50.16;97572.23;103545;1300;24248;-25
2022/04/08 11:07:30;;;;;;;6.40;0.80;;;;;;;12.40;49.93;97578.73;103571;1300;23959;-25
2022/04/08 11:09:56;;;;;;;0.40;0.20;;;;;;;11.20;52.26;97570.52;103522;1300;24237;-25
2022/04/08 11:12:22;;;;;;;1.00;0.50;;;;;;;11.26;51.54;97575.98;103569;1300;22875;-25
2022/04/08 11:14:53;;;;;;;1.30;0.70;;;;;;;11.40;52.06;97576.14;103595;1299;24332;-28
2022/04/08 11:17:20;;;;;;;0.50;0.10;;;;;;;11.71;50.59;97576.69;103592;1300;25403;-25
2022/04/08 11:19:50;;;;;;;0.90;0.50;;;;;;;12.38;48.02;97560.50;103578;1300;24024;-29
2022/04/08 11:22:15;;;;;;;2.80;0.70;;;;;;;12.44;47.00;97567.34;103554;1300;24352;-25
2022/04/08 11:24:41;;;;;;;2.30;0.50;;;;;;;12.55;46.52;97563.70;103589;1300;24420;-25
2022/04/08 11:27:08;;;;;;;1.80;0.50;;;;;;;12.46;47.26;97559.77;103569;1300;24195;-25
2022/04/08 11:29:34;;;;;;;0.90;0.30;;;;;;;12.65;47.09;97558.95;103627;1300;24290;-29